createdAt,value
2022-10-01T00:00:39.985Z,98041.16
2022-10-01T00:01:41.922Z,98047.53
2022-10-01T00:02:43.531Z,98044.91
2022-10-01T00:03:45.614Z,98036.84
2022-10-01T00:04:47.177Z,98049.19
2022-10-01T00:05:59.139Z,98044.13
2022-10-01T00:07:05.212Z,98050.47
2022-10-01T00:08:06.670Z,98043.50
2022-10-01T00:09:08.127Z,98047.56
2022-10-01T00:10:11.585Z,98047.34
2022-10-01T00:11:18.227Z,98048.28
2022-10-01T00:12:19.692Z,98049.13
2022-10-01T00:13:21.365Z,98053.34
2022-10-01T00:14:22.815Z,98044.50
2022-10-01T00:15:26.379Z,98059.59
2022-10-01T00:16:29.379Z,98057.97
2022-10-01T00:17:30.777Z,98059.19
2022-10-01T00:18:34.683Z,98053.94
2022-10-01T00:19:36.155Z,98056.75
2022-10-01T00:20:43.419Z,98058.72
2022-10-01T00:21:45.249Z,98059.06
2022-10-01T00:22:47.406Z,98061.00
2022-10-01T00:23:55.343Z,98060.88
2022-10-01T00:24:57.458Z,98062.75
2022-10-01T00:26:15.721Z,98058.44
2022-10-01T00:27:17.163Z,98055.34
2022-10-01T00:28:18.651Z,98053.59
2022-10-01T00:29:20.126Z,98054.34
2022-10-01T00:30:21.833Z,98060.88
2022-10-01T00:31:24.553Z,98053.81
2022-10-01T00:32:26.718Z,98058.47
2022-10-01T00:33:28.284Z,98059.00
2022-10-01T00:34:29.816Z,98055.72
2022-10-01T00:35:31.250Z,98056.72
2022-10-01T00:36:33.514Z,98059.97
2022-10-01T00:37:38.193Z,98058.97
2022-10-01T00:38:40.870Z,98043.75
2022-10-01T00:39:42.410Z,98039.69
2022-10-01T00:40:43.843Z,98047.47
2022-10-01T00:41:45.596Z,98049.13
2022-10-01T00:42:47.412Z,98045.13
2022-10-01T00:43:57.040Z,98048.19
2022-10-01T00:45:02.289Z,98047.13
2022-10-01T00:46:11.141Z,98048.47
2022-10-01T00:47:23.410Z,98057.66
2022-10-01T00:48:27.626Z,98057.31
2022-10-01T00:49:30.947Z,98056.13
2022-10-01T00:50:34.048Z,98054.25
2022-10-01T00:51:41.833Z,98058.19
2022-10-01T00:52:48.308Z,98063.84
2022-10-01T00:53:50.088Z,98057.19
2022-10-01T00:55:13.984Z,98052.91
2022-10-01T00:56:16.037Z,98042.47
2022-10-01T00:57:22.983Z,98049.34
2022-10-01T00:58:25.269Z,98055.91
2022-10-01T00:59:29.263Z,98054.38
2022-10-01T01:00:31.870Z,98047.56
2022-10-01T01:01:37.589Z,98042.47
2022-10-01T01:02:40.545Z,98048.88
2022-10-01T01:03:42.009Z,98047.00
2022-10-01T01:04:44.812Z,98041.97
2022-10-01T01:05:47.772Z,98041.72
2022-10-01T01:06:57.997Z,98039.59
2022-10-01T01:08:02.916Z,98041.38
2022-10-01T01:09:04.374Z,98044.09
2022-10-01T01:10:07.384Z,98036.81
2022-10-01T01:11:32.985Z,98037.94
2022-10-01T01:12:58.755Z,98026.38
2022-10-01T01:14:12.178Z,98034.94
2022-10-01T01:15:51.051Z,98024.63
2022-10-01T01:17:01.084Z,98033.94
2022-10-01T01:18:05.708Z,98027.16
2022-10-01T01:19:55.003Z,98028.03
2022-10-01T01:21:00.085Z,98029.84
2022-10-01T01:22:04.969Z,98035.19
2022-10-01T01:23:16.457Z,98030.44
2022-10-01T01:24:49.935Z,98027.81
2022-10-01T01:26:08.184Z,98024.97
2022-10-01T01:27:52.995Z,98026.22
2022-10-01T01:29:02.326Z,98024.63
2022-10-01T01:30:08.459Z,98024.63
2022-10-01T01:31:23.035Z,98040.69
2022-10-01T01:32:31.990Z,98031.31
2022-10-01T01:33:35.675Z,98028.78
2022-10-01T01:34:40.019Z,98029.28
2022-10-01T01:35:50.446Z,98035.28
2022-10-01T01:37:01.574Z,98032.31
2022-10-01T01:38:08.952Z,98024.03
2022-10-01T01:39:14.507Z,98023.88
2022-10-01T01:40:18.572Z,98018.94
2022-10-01T01:41:23.342Z,98020.47
2022-10-01T01:42:32.962Z,98016.91
2022-10-01T01:43:40.777Z,98011.81
2022-10-01T01:44:46.575Z,98023.78
2022-10-01T01:45:52.227Z,98024.47
2022-10-01T01:46:56.797Z,98024.81
2022-10-01T01:48:02.213Z,98014.28
2022-10-01T01:49:05.299Z,98017.75
2022-10-01T01:50:08.203Z,98013.78
2022-10-01T01:51:17.241Z,98003.53
2022-10-01T01:52:19.205Z,98009.91
2022-10-01T01:53:20.749Z,98011.81
2022-10-01T01:54:22.409Z,98009.19
2022-10-01T01:55:26.118Z,98007.09
2022-10-01T01:56:28.162Z,98013.38
2022-10-01T01:57:30.231Z,98003.38
2022-10-01T01:58:34.193Z,98009.69
2022-10-01T01:59:36.486Z,98010.28
2022-10-01T02:00:39.216Z,98007.06
2022-10-01T02:01:43.181Z,98001.47
2022-10-01T02:02:51.827Z,98006.03
2022-10-01T02:03:53.312Z,98005.03
2022-10-01T02:04:59.410Z,98003.91
2022-10-01T02:06:07.100Z,98005.38
2022-10-01T02:07:28.414Z,98003.50
2022-10-01T02:08:57.274Z,98003.78
2022-10-01T02:10:17.058Z,98000.28
2022-10-01T02:11:38.723Z,98003.69
2022-10-01T02:13:18.434Z,97987.50
2022-10-01T02:14:27.852Z,97993.78
2022-10-01T02:15:41.453Z,97986.31
2022-10-01T02:16:56.031Z,97989.34
2022-10-01T02:18:17.365Z,97989.25
2022-10-01T02:19:52.233Z,97992.00
2022-10-01T02:21:09.296Z,97989.88
2022-10-01T02:22:26.787Z,97987.84
2022-10-01T02:23:41.021Z,97991.41
2022-10-01T02:24:57.178Z,97985.72
2022-10-01T02:26:04.367Z,97983.25
2022-10-01T02:27:26.920Z,97989.63
2022-10-01T02:28:32.824Z,97985.44
2022-10-01T02:29:36.947Z,97983.84
2022-10-01T02:30:41.712Z,97976.31
2022-10-01T02:31:46.360Z,97979.47
2022-10-01T02:32:50.545Z,97978.72
2022-10-01T02:33:55.464Z,97976.66
2022-10-01T02:34:58.773Z,97975.22
2022-10-01T02:36:03.070Z,97973.19
2022-10-01T02:37:07.766Z,97976.59
2022-10-01T02:38:10.710Z,97973.59
2022-10-01T02:39:15.717Z,97982.44
2022-10-01T02:40:22.406Z,97976.22
2022-10-01T02:41:29.273Z,97978.38
2022-10-01T02:42:32.708Z,97979.56
2022-10-01T02:43:42.720Z,97979.28
2022-10-01T02:44:46.802Z,97979.56
2022-10-01T02:45:55.533Z,97979.91
2022-10-01T02:47:04.523Z,97978.22
2022-10-01T02:48:13.357Z,97981.44
2022-10-01T02:49:15.138Z,97979.16
2022-10-01T02:50:16.693Z,97975.25
2022-10-01T02:51:28.818Z,97982.38
2022-10-01T02:53:09.504Z,97981.00
2022-10-01T02:54:22.954Z,97982.50
2022-10-01T02:55:28.803Z,97987.34
2022-10-01T02:56:49.518Z,97984.91
2022-10-01T02:57:52.208Z,97991.63
2022-10-01T02:58:53.954Z,97988.06
2022-10-01T02:59:57.721Z,97990.09
2022-10-01T03:00:59.297Z,97976.56
2022-10-01T03:02:01.158Z,97979.75
2022-10-01T03:03:02.851Z,97984.75
2022-10-01T03:04:04.284Z,97978.31
2022-10-01T03:05:06.792Z,97978.72
2022-10-01T03:06:08.243Z,97973.47
2022-10-01T03:07:09.744Z,97971.09
2022-10-01T03:08:11.221Z,97971.34
2022-10-01T03:09:13.591Z,97974.03
2022-10-01T03:10:16.515Z,97968.34
2022-10-01T03:11:17.945Z,97969.06
2022-10-01T03:12:20.640Z,97963.88
2022-10-01T03:13:23.461Z,97968.59
2022-10-01T03:14:25.097Z,97959.81
2022-10-01T03:15:26.528Z,97969.56
2022-10-01T03:16:28.039Z,97961.84
2022-10-01T03:17:29.650Z,97957.81
2022-10-01T03:18:31.078Z,97960.59
2022-10-01T03:19:32.533Z,97960.63
2022-10-01T03:20:33.944Z,97964.97
2022-10-01T03:21:36.757Z,97960.03
2022-10-01T03:22:38.396Z,97970.13
2022-10-01T03:23:39.726Z,97954.88
2022-10-01T03:24:41.101Z,97965.72
2022-10-01T03:25:42.572Z,97965.47
2022-10-01T03:26:45.555Z,97960.59
2022-10-01T03:27:47.026Z,97964.41
2022-10-01T03:28:48.535Z,97956.38
2022-10-01T03:29:50.120Z,97964.25
2022-10-01T03:30:51.553Z,97956.38
2022-10-01T03:31:53.672Z,97960.19
2022-10-01T03:32:55.121Z,97960.19
2022-10-01T03:33:57.989Z,97957.06
2022-10-01T03:34:59.449Z,97954.94
2022-10-01T03:36:01.144Z,97958.56
2022-10-01T03:37:02.620Z,97952.56
2022-10-01T03:38:04.167Z,97954.66
2022-10-01T03:39:05.705Z,97954.75
2022-10-01T03:40:08.265Z,97953.50
2022-10-01T03:41:09.726Z,97956.78
2022-10-01T03:42:11.523Z,97964.06
2022-10-01T03:43:13.004Z,97957.38
2022-10-01T03:44:14.466Z,97955.66
2022-10-01T03:45:15.986Z,97954.81
2022-10-01T03:46:18.085Z,97953.31
2022-10-01T03:47:19.853Z,97948.38
2022-10-01T03:48:21.369Z,97949.38
2022-10-01T03:49:22.861Z,97944.81
2022-10-01T03:50:24.320Z,97943.38
2022-10-01T03:51:25.847Z,97939.91
2022-10-01T03:52:27.709Z,97942.09
2022-10-01T03:53:31.329Z,97943.22
2022-10-01T03:54:33.099Z,97943.75
2022-10-01T03:55:34.537Z,97947.00
2022-10-01T03:56:36.865Z,97943.19
2022-10-01T03:57:38.343Z,97947.22
2022-10-01T03:58:39.786Z,97942.75
2022-10-01T03:59:41.224Z,97938.41
2022-10-01T04:00:44.207Z,97936.38
2022-10-01T04:01:46.021Z,97931.59
2022-10-01T04:02:47.639Z,97936.59
2022-10-01T04:03:50.335Z,97930.84
2022-10-01T04:04:51.871Z,97931.25
2022-10-01T04:05:53.320Z,97928.13
2022-10-01T04:06:55.092Z,97923.25
2022-10-01T04:07:56.532Z,97927.06
2022-10-01T04:08:58.049Z,97925.03
2022-10-01T04:09:59.499Z,97923.03
2022-10-01T04:11:01.109Z,97917.78
2022-10-01T04:12:03.174Z,97913.38
2022-10-01T04:13:05.232Z,97918.97
2022-10-01T04:14:06.799Z,97918.72
2022-10-01T04:15:08.630Z,97922.28
2022-10-01T04:16:10.337Z,97919.84
2022-10-01T04:17:12.181Z,97924.66
2022-10-01T04:18:13.702Z,97930.84
2022-10-01T04:19:15.181Z,97925.34
2022-10-01T04:20:16.825Z,97922.78
2022-10-01T04:21:18.652Z,97921.56
2022-10-01T04:22:20.076Z,97922.97
2022-10-01T04:23:22.584Z,97921.59
2022-10-01T04:24:24.040Z,97926.78
2022-10-01T04:25:25.978Z,97924.25
2022-10-01T04:26:27.736Z,97932.09
2022-10-01T04:27:29.153Z,97923.47
2022-10-01T04:28:31.599Z,97931.13
2022-10-01T04:29:36.773Z,97924.34
2022-10-01T04:30:43.143Z,97922.88
2022-10-01T04:31:44.957Z,97923.25
2022-10-01T04:32:46.673Z,97923.44
2022-10-01T04:33:48.246Z,97926.75
2022-10-01T04:34:52.834Z,97918.03
2022-10-01T04:35:54.306Z,97915.16
2022-10-01T04:36:56.582Z,97923.09
2022-10-01T04:38:06.124Z,97916.13
2022-10-01T04:39:08.210Z,97915.44
2022-10-01T04:40:10.808Z,97914.22
2022-10-01T04:41:14.138Z,97918.75
2022-10-01T04:42:15.871Z,97911.25
2022-10-01T04:43:17.287Z,97913.78
2022-10-01T04:44:19.412Z,97910.00
2022-10-01T04:45:20.818Z,97910.41
2022-10-01T04:46:22.618Z,97908.88
2022-10-01T04:47:24.173Z,97908.81
2022-10-01T04:48:25.691Z,97915.94
2022-10-01T04:49:27.783Z,97912.19
2022-10-01T04:50:29.553Z,97908.41
2022-10-01T04:51:31.815Z,97915.16
2022-10-01T04:52:33.465Z,97913.66
2022-10-01T04:53:35.027Z,97910.78
2022-10-01T04:54:36.455Z,97917.16
2022-10-01T04:55:38.157Z,97912.34
2022-10-01T04:56:39.984Z,97922.44
2022-10-01T04:57:42.123Z,97916.28
2022-10-01T04:58:43.595Z,97926.66
2022-10-01T04:59:45.041Z,97925.00
2022-10-01T05:00:46.586Z,97929.47
2022-10-01T05:01:48.460Z,97931.00
2022-10-01T05:02:50.722Z,97931.06
2022-10-01T05:03:52.312Z,97928.50
2022-10-01T05:04:54.393Z,97929.63
2022-10-01T05:05:56.171Z,97925.88
2022-10-01T05:06:57.627Z,97933.91
2022-10-01T05:07:59.125Z,97927.31
2022-10-01T05:09:00.721Z,97929.38
2022-10-01T05:10:02.414Z,97915.94
2022-10-01T05:11:04.213Z,97921.19
2022-10-01T05:12:06.320Z,97916.53
2022-10-01T05:13:07.864Z,97919.31
2022-10-01T05:14:09.489Z,97916.53
2022-10-01T05:15:11.224Z,97912.59
2022-10-01T05:16:13.034Z,97906.91
2022-10-01T05:17:17.105Z,97913.50
2022-10-01T05:18:19.091Z,97907.59
2022-10-01T05:19:21.738Z,97909.53
2022-10-01T05:20:26.626Z,97916.97
2022-10-01T05:21:28.746Z,97914.63
2022-10-01T05:22:30.284Z,97910.75
2022-10-01T05:23:32.810Z,97912.75
2022-10-01T05:24:34.532Z,97910.34
2022-10-01T05:25:36.304Z,97905.50
2022-10-01T05:26:39.139Z,97916.47
2022-10-01T05:27:41.091Z,97919.75
2022-10-01T05:28:44.442Z,97920.13
2022-10-01T05:29:46.840Z,97916.28
2022-10-01T05:30:48.600Z,97923.16
2022-10-01T05:31:50.194Z,97932.63
2022-10-01T05:32:56.797Z,97930.94
2022-10-01T05:33:58.236Z,97925.16
2022-10-01T05:34:59.688Z,97928.97
2022-10-01T05:36:01.771Z,97929.53
2022-10-01T05:37:03.381Z,97936.13
2022-10-01T05:38:04.828Z,97929.13
2022-10-01T05:39:06.405Z,97930.56
2022-10-01T05:40:09.424Z,97930.31
2022-10-01T05:41:11.175Z,97932.66
2022-10-01T05:42:12.642Z,97937.91
2022-10-01T05:43:14.720Z,97934.00
2022-10-01T05:44:16.634Z,97934.25
2022-10-01T05:45:20.982Z,97937.72
2022-10-01T05:46:22.824Z,97930.41
2022-10-01T05:47:24.437Z,97928.50
2022-10-01T05:48:25.884Z,97924.03
2022-10-01T05:49:27.316Z,97932.59
2022-10-01T05:50:33.405Z,97922.22
2022-10-01T05:51:36.544Z,97924.84
2022-10-01T05:52:38.538Z,97913.41
2022-10-01T05:53:39.950Z,97913.03
2022-10-01T05:54:41.784Z,97915.25
2022-10-01T05:55:43.620Z,97918.16
2022-10-01T05:56:45.774Z,97915.53
2022-10-01T05:57:54.620Z,97917.94
2022-10-01T05:58:56.409Z,97924.84
2022-10-01T05:59:58.009Z,97919.31
2022-10-01T06:00:59.587Z,97922.38
2022-10-01T06:02:01.417Z,97926.44
2022-10-01T06:03:04.414Z,97921.41
2022-10-01T06:04:05.874Z,97909.25
2022-10-01T06:05:07.360Z,97911.66
2022-10-01T06:06:09.225Z,97916.97
2022-10-01T06:07:10.917Z,97919.28
2022-10-01T06:08:12.438Z,97920.44
2022-10-01T06:09:14.343Z,97914.22
2022-10-01T06:10:16.974Z,97913.25
2022-10-01T06:11:19.524Z,97909.03
2022-10-01T06:12:21.031Z,97906.28
2022-10-01T06:13:23.141Z,97896.69
2022-10-01T06:14:24.567Z,97898.88
2022-10-01T06:15:26.378Z,97901.75
2022-10-01T06:16:27.935Z,97895.28
2022-10-01T06:17:29.403Z,97894.38
2022-10-01T06:18:30.953Z,97891.53
2022-10-01T06:19:32.383Z,97888.72
2022-10-01T06:20:35.054Z,97889.47
2022-10-01T06:21:37.008Z,97885.75
2022-10-01T06:22:40.850Z,97885.75
2022-10-01T06:23:44.362Z,97885.94
2022-10-01T06:24:45.851Z,97892.19
2022-10-01T06:25:47.419Z,97888.25
2022-10-01T06:26:49.294Z,97885.66
2022-10-01T06:27:59.235Z,97882.00
2022-10-01T06:29:02.694Z,97880.97
2022-10-01T06:30:05.739Z,97878.78
2022-10-01T06:31:10.379Z,97880.41
2022-10-01T06:32:17.916Z,97877.19
2022-10-01T06:33:19.800Z,97878.50
2022-10-01T06:34:21.450Z,97880.84
2022-10-01T06:35:22.962Z,97882.22
2022-10-01T06:36:24.940Z,97889.00
2022-10-01T06:37:26.503Z,97885.59
2022-10-01T06:38:27.955Z,97891.97
2022-10-01T06:39:29.448Z,97883.75
2022-10-01T06:40:31.248Z,97889.06
2022-10-01T06:41:34.603Z,97891.47
2022-10-01T06:42:36.348Z,97888.06
2022-10-01T06:43:37.854Z,97892.91
2022-10-01T06:44:39.301Z,97882.19
2022-10-01T06:45:43.260Z,97884.38
2022-10-01T06:46:44.843Z,97887.31
2022-10-01T06:47:53.554Z,97893.19
2022-10-01T06:48:55.009Z,97891.19
2022-10-01T06:49:56.824Z,97883.38
2022-10-01T06:50:59.495Z,97891.44
2022-10-01T06:52:20.275Z,97885.88
2022-10-01T06:53:22.055Z,97882.06
2022-10-01T06:54:23.647Z,97884.41
2022-10-01T06:55:31.448Z,97884.00
2022-10-01T06:56:32.958Z,97887.41
2022-10-01T06:57:34.432Z,97889.00
2022-10-01T06:58:37.451Z,97886.97
2022-10-01T06:59:38.819Z,97885.66
2022-10-01T07:00:40.735Z,97885.72
2022-10-01T07:01:42.261Z,97887.41
2022-10-01T07:02:43.777Z,97885.06
2022-10-01T07:03:45.529Z,97878.06
2022-10-01T07:04:48.030Z,97872.19
2022-10-01T07:05:50.471Z,97877.56
2022-10-01T07:06:52.150Z,97878.66
2022-10-01T07:07:53.953Z,97874.44
2022-10-01T07:08:55.934Z,97872.94
2022-10-01T07:09:58.892Z,97872.50
2022-10-01T07:11:04.032Z,97872.41
2022-10-01T07:12:06.345Z,97878.13
2022-10-01T07:13:09.236Z,97873.06
2022-10-01T07:14:10.735Z,97872.44
2022-10-01T07:15:12.187Z,97869.03
2022-10-01T07:16:13.855Z,97871.97
2022-10-01T07:17:15.778Z,97874.69
2022-10-01T07:18:17.247Z,97867.88
2022-10-01T07:19:18.675Z,97874.88
2022-10-01T07:20:21.551Z,97881.94
2022-10-01T07:21:22.944Z,97877.06
2022-10-01T07:22:25.213Z,97870.00
2022-10-01T07:23:26.698Z,97876.09
2022-10-01T07:24:28.240Z,97876.44
2022-10-01T07:25:30.159Z,97875.34
2022-10-01T07:26:32.006Z,97877.78
2022-10-01T07:27:33.523Z,97880.31
2022-10-01T07:28:35.549Z,97871.72
2022-10-01T07:29:36.976Z,97876.09
2022-10-01T07:30:40.782Z,97870.25
2022-10-01T07:31:42.494Z,97873.63
2022-10-01T07:32:44.941Z,97883.19
2022-10-01T07:33:47.311Z,97875.47
2022-10-01T07:34:48.732Z,97882.56
2022-10-01T07:35:50.661Z,97887.69
2022-10-01T07:36:52.210Z,97885.97
2022-10-01T07:37:55.296Z,97880.41
2022-10-01T07:38:56.844Z,97891.69
2022-10-01T07:39:58.273Z,97889.00
2022-10-01T07:41:02.489Z,97892.94
2022-10-01T07:42:04.570Z,97881.22
2022-10-01T07:43:06.255Z,97895.41
2022-10-01T07:44:07.734Z,97896.59
2022-10-01T07:45:10.318Z,97879.59
2022-10-01T07:46:11.853Z,97888.75
2022-10-01T07:47:13.424Z,97893.22
2022-10-01T07:48:15.093Z,97890.63
2022-10-01T07:49:16.836Z,97894.16
2022-10-01T07:50:18.616Z,97894.03
2022-10-01T07:51:20.071Z,97895.03
2022-10-01T07:52:21.906Z,97895.06
2022-10-01T07:53:23.919Z,97899.53
2022-10-01T07:54:26.088Z,97890.88
2022-10-01T07:55:53.478Z,97898.13
2022-10-01T07:56:55.896Z,97889.78
2022-10-01T07:58:00.001Z,97891.28
2022-10-01T07:59:04.725Z,97890.00
2022-10-01T08:00:07.568Z,97883.16
2022-10-01T08:01:09.648Z,97888.59
2022-10-01T08:02:16.079Z,97883.50
2022-10-01T08:03:17.935Z,97880.16
2022-10-01T08:04:41.020Z,97882.03
2022-10-01T08:05:43.430Z,97885.81
2022-10-01T08:06:48.974Z,97892.31
2022-10-01T08:07:51.158Z,97888.75
2022-10-01T08:08:52.763Z,97886.94
2022-10-01T08:09:54.547Z,97886.13
2022-10-01T08:10:55.995Z,97887.91
2022-10-01T08:11:57.488Z,97888.66
2022-10-01T08:13:01.446Z,97894.31
2022-10-01T08:14:04.678Z,97890.47
2022-10-01T08:15:08.588Z,97887.44
2022-10-01T08:16:11.804Z,97885.22
2022-10-01T08:17:13.920Z,97884.69
2022-10-01T08:18:15.358Z,97881.44
2022-10-01T08:19:16.894Z,97883.00
2022-10-01T08:20:18.989Z,97889.41
2022-10-01T08:21:20.716Z,97889.53
2022-10-01T08:22:22.153Z,97890.97
2022-10-01T08:23:23.584Z,97892.16
2022-10-01T08:24:25.073Z,97884.38
2022-10-01T08:25:26.836Z,97892.38
2022-10-01T08:26:28.657Z,97888.94
2022-10-01T08:27:30.292Z,97883.84
2022-10-01T08:28:31.830Z,97886.47
2022-10-01T08:29:34.317Z,97882.44
2022-10-01T08:30:37.842Z,97882.91
2022-10-01T08:31:39.433Z,97885.91
2022-10-01T08:32:40.870Z,97876.28
2022-10-01T08:33:42.341Z,97882.13
2022-10-01T08:34:43.778Z,97883.84
2022-10-01T08:35:45.284Z,97877.25
2022-10-01T08:36:51.644Z,97871.91
2022-10-01T08:37:54.943Z,97868.22
2022-10-01T08:38:56.380Z,97871.28
2022-10-01T08:39:58.140Z,97867.47
2022-10-01T08:41:07.716Z,97862.16
2022-10-01T08:42:31.709Z,97871.63
2022-10-01T08:43:42.044Z,97876.84
2022-10-01T08:44:46.619Z,97879.84
2022-10-01T08:45:52.841Z,97876.63
2022-10-01T08:47:03.805Z,97878.00
2022-10-01T08:48:13.649Z,97875.63
2022-10-01T08:49:25.541Z,97880.63
2022-10-01T08:50:36.577Z,97873.16
2022-10-01T08:51:50.203Z,97866.09
2022-10-01T08:52:58.450Z,97866.63
2022-10-01T08:54:07.613Z,97860.44
2022-10-01T08:55:16.779Z,97856.16
2022-10-01T08:56:25.487Z,97866.50
2022-10-01T08:57:30.890Z,97861.69
2022-10-01T08:58:45.421Z,97863.13
2022-10-01T09:00:14.714Z,97855.31
2022-10-01T09:01:23.919Z,97850.13
2022-10-01T09:02:31.546Z,97856.97
2022-10-01T09:03:34.188Z,97848.44
2022-10-01T09:04:35.675Z,97853.75
2022-10-01T09:05:48.287Z,97845.81
2022-10-01T09:06:57.290Z,97845.00
2022-10-01T09:08:08.135Z,97847.25
2022-10-01T09:09:27.732Z,97842.22
2022-10-01T09:10:36.174Z,97847.00
2022-10-01T09:11:56.127Z,97845.38
2022-10-01T09:13:34.171Z,97837.13
2022-10-01T09:15:04.276Z,97842.88
2022-10-01T09:16:32.135Z,97830.78
2022-10-01T09:17:46.612Z,97828.63
2022-10-01T09:19:00.478Z,97828.97
2022-10-01T09:20:16.080Z,97827.06
2022-10-01T09:21:52.861Z,97828.84
2022-10-01T09:22:57.364Z,97827.47
2022-10-01T09:24:04.205Z,97822.94
2022-10-01T09:25:25.727Z,97818.72
2022-10-01T09:26:30.929Z,97821.88
2022-10-01T09:27:34.056Z,97813.97
2022-10-01T09:28:35.996Z,97814.16
2022-10-01T09:29:44.285Z,97807.84
2022-10-01T09:30:55.191Z,97813.78
2022-10-01T09:31:59.257Z,97813.66
2022-10-01T09:33:17.394Z,97812.22
2022-10-01T09:34:37.301Z,97804.69
2022-10-01T09:36:01.894Z,97805.69
2022-10-01T09:37:39.054Z,97802.75
2022-10-01T09:38:44.013Z,97804.44
2022-10-01T09:40:13.012Z,97788.78
2022-10-01T09:41:15.143Z,97789.25
2022-10-01T09:42:18.378Z,97791.47
2022-10-01T09:43:22.189Z,97789.78
2022-10-01T09:44:29.874Z,97787.22
2022-10-01T09:45:31.358Z,97787.22
2022-10-01T09:46:34.352Z,97793.97
2022-10-01T09:47:35.817Z,97792.94
2022-10-01T09:48:55.092Z,97786.16
2022-10-01T09:50:00.217Z,97778.66
2022-10-01T09:51:16.767Z,97780.88
2022-10-01T09:52:28.719Z,97787.50
2022-10-01T09:53:46.240Z,97786.63
2022-10-01T09:54:56.298Z,97788.38
2022-10-01T09:56:03.648Z,97785.56
2022-10-01T09:57:09.756Z,97781.94
2022-10-01T09:58:17.600Z,97779.31
2022-10-01T09:59:28.507Z,97786.13
2022-10-01T10:00:30.682Z,97775.81
2022-10-01T10:01:46.185Z,97777.38
2022-10-01T10:02:50.489Z,97771.53
2022-10-01T10:03:57.184Z,97775.38
2022-10-01T10:05:12.983Z,97767.66
2022-10-01T10:06:16.032Z,97785.38
2022-10-01T10:07:19.071Z,97776.09
2022-10-01T10:08:27.173Z,97778.53
2022-10-01T10:09:31.923Z,97765.72
2022-10-01T10:10:36.902Z,97767.41
2022-10-01T10:11:42.743Z,97773.75
2022-10-01T10:12:45.205Z,97770.56
2022-10-01T10:13:52.702Z,97765.41
2022-10-01T10:14:56.797Z,97768.25
2022-10-01T10:16:00.287Z,97766.41
2022-10-01T10:17:15.074Z,97768.06
2022-10-01T10:18:23.005Z,97786.88
2022-10-01T10:19:28.641Z,97777.59
2022-10-01T10:20:39.706Z,97775.00
2022-10-01T10:21:52.074Z,97775.75
2022-10-01T10:22:53.506Z,97778.13
2022-10-01T10:24:07.388Z,97775.91
2022-10-01T10:25:19.662Z,97763.16
2022-10-01T10:26:33.348Z,97777.44
2022-10-01T10:27:36.915Z,97772.03
2022-10-01T10:28:48.114Z,97775.78
2022-10-01T10:29:49.659Z,97774.44
2022-10-01T10:30:53.996Z,97779.72
2022-10-01T10:31:56.319Z,97785.34
2022-10-01T10:33:06.318Z,97782.03
2022-10-01T10:34:13.162Z,97783.16
2022-10-01T10:35:26.579Z,97781.41
2022-10-01T10:36:32.359Z,97786.88
2022-10-01T10:37:37.921Z,97781.34
2022-10-01T10:38:39.443Z,97784.78
2022-10-01T10:39:44.466Z,97785.53
2022-10-01T10:40:46.123Z,97777.94
2022-10-01T10:41:49.638Z,97776.38
2022-10-01T10:42:53.449Z,97766.38
2022-10-01T10:44:02.190Z,97767.06
2022-10-01T10:45:15.588Z,97758.72
2022-10-01T10:46:30.035Z,97754.00
2022-10-01T10:47:32.915Z,97756.78
2022-10-01T10:48:44.046Z,97767.72
2022-10-01T10:50:00.187Z,97765.88
2022-10-01T10:51:04.293Z,97759.91
2022-10-01T10:52:19.790Z,97765.19
2022-10-01T10:53:24.806Z,97756.34
2022-10-01T10:54:40.745Z,97763.78
2022-10-01T10:55:53.407Z,97756.59
2022-10-01T10:57:02.235Z,97763.41
2022-10-01T10:58:12.316Z,97764.50
2022-10-01T10:59:14.256Z,97765.31
2022-10-01T11:00:26.212Z,97756.72
2022-10-01T11:01:29.445Z,97756.50
2022-10-01T11:02:33.225Z,97761.09
2022-10-01T11:03:38.101Z,97761.91
2022-10-01T11:04:46.332Z,97757.47
2022-10-01T11:05:51.647Z,97759.44
2022-10-01T11:06:58.358Z,97746.34
2022-10-01T11:08:06.908Z,97745.22
2022-10-01T11:09:11.588Z,97746.38
2022-10-01T11:10:28.693Z,97748.03
2022-10-01T11:11:50.119Z,97742.88
2022-10-01T11:12:56.464Z,97740.78
2022-10-01T11:14:22.736Z,97754.44
2022-10-01T11:15:47.075Z,97747.38
2022-10-01T11:17:00.813Z,97745.53
2022-10-01T11:18:33.483Z,97746.47
2022-10-01T11:20:07.371Z,97749.38
2022-10-01T11:21:21.243Z,97753.63
2022-10-01T11:22:53.143Z,97758.25
2022-10-01T11:24:19.445Z,97762.34
2022-10-01T11:25:23.639Z,97757.50
2022-10-01T11:26:53.247Z,97751.63
2022-10-01T11:28:10.090Z,97756.19
2022-10-01T11:29:26.496Z,97747.16
2022-10-01T11:31:07.015Z,97742.97
2022-10-01T11:32:19.424Z,97758.19
2022-10-01T11:33:57.900Z,97760.88
2022-10-01T11:35:21.524Z,97754.84
2022-10-01T11:36:41.797Z,97760.56
2022-10-01T11:37:54.066Z,97765.13
2022-10-01T11:39:02.760Z,97766.66
2022-10-01T11:40:28.229Z,97763.63
2022-10-01T11:41:43.194Z,97759.19
2022-10-01T11:42:46.438Z,97758.38
2022-10-01T11:44:04.276Z,97758.38
2022-10-01T11:45:32.644Z,97763.63
2022-10-01T11:46:50.295Z,97769.25
2022-10-01T11:47:57.682Z,97764.41
2022-10-01T11:49:15.567Z,97759.13
2022-10-01T11:50:22.136Z,97761.34
2022-10-01T11:51:29.414Z,97762.16
2022-10-01T11:52:32.588Z,97755.41
2022-10-01T11:53:38.599Z,97753.19
2022-10-01T11:54:56.116Z,97744.50
2022-10-01T11:56:23.506Z,97744.84
2022-10-01T11:57:45.336Z,97747.88
2022-10-01T11:59:33.673Z,97743.03
2022-10-01T12:00:37.457Z,97739.25
2022-10-01T12:01:57.433Z,97748.44
2022-10-01T12:03:05.197Z,97746.94
2022-10-01T12:04:17.846Z,97746.59
2022-10-01T12:05:28.593Z,97742.94
2022-10-01T12:06:37.047Z,97749.41
2022-10-01T12:08:03.032Z,97746.03
2022-10-01T12:09:25.814Z,97758.69
2022-10-01T12:10:30.176Z,97749.22
2022-10-01T12:11:46.948Z,97749.19
2022-10-01T12:12:52.804Z,97749.84
2022-10-01T12:14:09.499Z,97744.72
2022-10-01T12:15:20.635Z,97742.16
2022-10-01T12:16:44.760Z,97744.88
2022-10-01T12:18:03.932Z,97740.66
2022-10-01T12:19:14.990Z,97736.38
2022-10-01T12:20:24.991Z,97746.63
2022-10-01T12:21:37.099Z,97741.44
2022-10-01T12:22:42.059Z,97742.16
2022-10-01T12:23:54.974Z,97745.19
2022-10-01T12:24:57.056Z,97746.75
2022-10-01T12:26:17.368Z,97741.03
2022-10-01T12:27:48.322Z,97754.28
2022-10-01T12:28:59.324Z,97744.03
2022-10-01T12:30:15.612Z,97748.22
2022-10-01T12:31:27.436Z,97751.94
2022-10-01T12:32:54.142Z,97752.75
2022-10-01T12:34:07.954Z,97747.16
2022-10-01T12:35:49.704Z,97738.13
2022-10-01T12:37:10.355Z,97743.50
2022-10-01T12:38:27.539Z,97751.03
2022-10-01T12:39:57.383Z,97740.91
2022-10-01T12:41:38.756Z,97741.94
2022-10-01T12:42:55.141Z,97744.25
2022-10-01T12:44:38.894Z,97749.13
2022-10-01T12:46:03.042Z,97742.31
2022-10-01T12:47:51.320Z,97750.22
2022-10-01T12:49:11.395Z,97748.78
2022-10-01T12:50:39.263Z,97745.38
2022-10-01T12:51:47.599Z,97751.41
2022-10-01T12:53:04.256Z,97742.38
2022-10-01T12:54:21.095Z,97749.97
2022-10-01T12:55:35.225Z,97755.97
2022-10-01T12:56:40.619Z,97756.41
2022-10-01T12:57:47.865Z,97751.13
2022-10-01T12:59:10.938Z,97750.81
2022-10-01T13:00:20.011Z,97757.22
2022-10-01T13:01:45.665Z,97753.81
2022-10-01T13:03:02.474Z,97757.19
2022-10-01T13:04:31.374Z,97761.72
2022-10-01T13:06:04.172Z,97757.97
2022-10-01T13:07:27.275Z,97771.56
2022-10-01T13:08:38.750Z,97757.63